sensor_id;sensor_type;location;lat;lon;timestamp;pressure;altitude;pressure_sealevel;temperature;humidity
76024;BME280;64719;52.124;6.226;2023-04-06T00:00:05;101941.25;;;0.78;86.08
76024;BME280;64719;52.124;6.226;2023-04-06T00:02:37;101937.72;;;0.87;85.63
76024;BME280;64719;52.124;6.226;2023-04-06T00:05:04;101933.63;;;0.83;85.21
76024;BME280;64719;52.124;6.226;2023-04-06T00:07:31;101935.63;;;0.62;85.17
76024;BME280;64719;52.124;6.226;2023-04-06T00:09:58;101928.03;;;0.77;86.80
76024;BME280;64719;52.124;6.226;2023-04-06T00:12:25;101926.03;;;0.79;86.68
76024;BME280;64719;52.124;6.226;2023-04-06T00:14:51;101926.31;;;0.85;85.39
76024;BME280;64719;52.124;6.226;2023-04-06T00:17:19;101922.53;;;0.59;85.77
76024;BME280;64719;52.124;6.226;2023-04-06T00:19:46;101917.78;;;0.44;85.44
76024;BME280;64719;52.124;6.226;2023-04-06T00:22:12;101921.28;;;0.44;86.58
76024;BME280;64719;52.124;6.226;2023-04-06T00:24:39;101917.91;;;0.61;85.80
76024;BME280;64719;52.124;6.226;2023-04-06T00:27:05;101917.22;;;0.69;84.91
76024;BME280;64719;52.124;6.226;2023-04-06T00:29:32;101913.56;;;0.60;84.44
76024;BME280;64719;52.124;6.226;2023-04-06T00:31:58;101907.81;;;0.36;86.16
76024;BME280;64719;52.124;6.226;2023-04-06T00:34:26;101900.34;;;0.49;86.53
76024;BME280;64719;52.124;6.226;2023-04-06T00:36:53;101903.75;;;0.23;86.29
76024;BME280;64719;52.124;6.226;2023-04-06T00:39:19;101900.88;;;0.05;86.32
76024;BME280;64719;52.124;6.226;2023-04-06T00:41:50;101903.38;;;-0.03;85.96
76024;BME280;64719;52.124;6.226;2023-04-06T00:44:17;101899.09;;;0.25;87.54
76024;BME280;64719;52.124;6.226;2023-04-06T00:46:45;101899.31;;;-0.07;86.15
76024;BME280;64719;52.124;6.226;2023-04-06T00:49:11;101898.59;;;-0.09;86.20
76024;BME280;64719;52.124;6.226;2023-04-06T00:51:39;101898.59;;;-0.09;86.92
76024;BME280;64719;52.124;6.226;2023-04-06T00:54:06;101891.44;;;-0.18;87.47
76024;BME280;64719;52.124;6.226;2023-04-06T00:56:32;101885.81;;;-0.25;87.10
76024;BME280;64719;52.124;6.226;2023-04-06T00:58:59;101889.72;;;-0.29;87.81
76024;BME280;64719;52.124;6.226;2023-04-06T01:01:26;101882.66;;;-0.39;87.17
76024;BME280;64719;52.124;6.226;2023-04-06T01:03:53;101882.25;;;-0.35;88.30
76024;BME280;64719;52.124;6.226;2023-04-06T01:06:20;101881.81;;;0.00;88.52
76024;BME280;64719;52.124;6.226;2023-04-06T01:08:48;101878.69;;;-0.05;87.68
76024;BME280;64719;52.124;6.226;2023-04-06T01:11:18;101870.06;;;-0.37;87.59
76024;BME280;64719;52.124;6.226;2023-04-06T01:13:46;101865.84;;;-0.40;87.65
76024;BME280;64719;52.124;6.226;2023-04-06T01:16:20;101864.16;;;-0.41;88.11
76024;BME280;64719;52.124;6.226;2023-04-06T01:18:46;101866.13;;;-0.43;88.79
76024;BME280;64719;52.124;6.226;2023-04-06T01:21:16;101863.75;;;-0.36;88.23
76024;BME280;64719;52.124;6.226;2023-04-06T01:23:45;101857.84;;;-0.40;88.03
76024;BME280;64719;52.124;6.226;2023-04-06T01:26:12;101858.94;;;-0.42;88.91
76024;BME280;64719;52.124;6.226;2023-04-06T01:28:38;101856.34;;;-0.14;88.84
76024;BME280;64719;52.124;6.226;2023-04-06T01:31:06;101853.53;;;-0.31;88.56
76024;BME280;64719;52.124;6.226;2023-04-06T01:33:32;101853.22;;;-0.47;88.21
76024;BME280;64719;52.124;6.226;2023-04-06T01:35:59;101850.81;;;-0.50;88.81
76024;BME280;64719;52.124;6.226;2023-04-06T01:38:27;101845.03;;;-0.55;88.20
76024;BME280;64719;52.124;6.226;2023-04-06T01:40:55;101844.44;;;-0.68;89.40
76024;BME280;64719;52.124;6.226;2023-04-06T01:43:24;101835.22;;;-0.55;89.95
76024;BME280;64719;52.124;6.226;2023-04-06T01:45:51;101838.78;;;-0.35;89.37
76024;BME280;64719;52.124;6.226;2023-04-06T01:48:18;101842.66;;;-0.58;89.34
76024;BME280;64719;52.124;6.226;2023-04-06T01:50:45;101837.53;;;-0.71;89.75
76024;BME280;64719;52.124;6.226;2023-04-06T01:53:11;101840.13;;;-0.60;90.47
76024;BME280;64719;52.124;6.226;2023-04-06T01:55:38;101837.63;;;-0.52;90.12
76024;BME280;64719;52.124;6.226;2023-04-06T01:58:06;101841.66;;;-0.57;90.45
76024;BME280;64719;52.124;6.226;2023-04-06T02:00:32;101833.56;;;-0.46;90.41
76024;BME280;64719;52.124;6.226;2023-04-06T02:03:04;101827.94;;;-0.53;90.31
76024;BME280;64719;52.124;6.226;2023-04-06T02:05:31;101826.97;;;-0.52;90.98
76024;BME280;64719;52.124;6.226;2023-04-06T02:07:58;101829.91;;;-0.55;90.43
76024;BME280;64719;52.124;6.226;2023-04-06T02:10:25;101829.56;;;-0.71;91.13
76024;BME280;64719;52.124;6.226;2023-04-06T02:12:51;101816.84;;;-0.58;90.67
76024;BME280;64719;52.124;6.226;2023-04-06T02:15:19;101815.69;;;-0.74;90.59
76024;BME280;64719;52.124;6.226;2023-04-06T02:17:48;101811.53;;;-0.58;91.16
76024;BME280;64719;52.124;6.226;2023-04-06T02:20:15;101815.28;;;-0.70;90.80
76024;BME280;64719;52.124;6.226;2023-04-06T02:22:41;101810.91;;;-0.80;90.26
76024;BME280;64719;52.124;6.226;2023-04-06T02:25:08;101809.38;;;-1.03;90.89
76024;BME280;64719;52.124;6.226;2023-04-06T02:27:35;101819.09;;;-0.93;91.45
76024;BME280;64719;52.124;6.226;2023-04-06T02:30:01;101813.19;;;-0.96;91.86
76024;BME280;64719;52.124;6.226;2023-04-06T02:32:29;101805.47;;;-0.99;92.00
76024;BME280;64719;52.124;6.226;2023-04-06T02:34:56;101805.84;;;-0.74;91.64
76024;BME280;64719;52.124;6.226;2023-04-06T02:37:22;101807.00;;;-0.67;91.24
76024;BME280;64719;52.124;6.226;2023-04-06T02:39:49;101813.06;;;-0.55;90.92
76024;BME280;64719;52.124;6.226;2023-04-06T02:42:16;101813.56;;;-0.71;90.49
76024;BME280;64719;52.124;6.226;2023-04-06T02:44:42;101805.56;;;-0.71;91.56
76024;BME280;64719;52.124;6.226;2023-04-06T02:47:09;101805.78;;;-0.93;91.22
76024;BME280;64719;52.124;6.226;2023-04-06T02:49:37;101803.03;;;-0.72;91.72
76024;BME280;64719;52.124;6.226;2023-04-06T02:52:03;101798.53;;;-0.81;91.63
76024;BME280;64719;52.124;6.226;2023-04-06T02:54:30;101794.53;;;-1.06;91.44
76024;BME280;64719;52.124;6.226;2023-04-06T02:56:56;101798.53;;;-0.81;92.17
76024;BME280;64719;52.124;6.226;2023-04-06T02:59:23;101797.81;;;-0.93;91.69
76024;BME280;64719;52.124;6.226;2023-04-06T03:01:49;101794.13;;;-1.01;90.90
76024;BME280;64719;52.124;6.226;2023-04-06T03:04:16;101791.75;;;-1.04;91.58
76024;BME280;64719;52.124;6.226;2023-04-06T03:06:44;101787.22;;;-1.13;91.91
76024;BME280;64719;52.124;6.226;2023-04-06T03:09:10;101785.75;;;-0.87;92.12
76024;BME280;64719;52.124;6.226;2023-04-06T03:11:37;101780.41;;;-0.97;91.47
76024;BME280;64719;52.124;6.226;2023-04-06T03:14:03;101786.44;;;-0.95;91.95
76024;BME280;64719;52.124;6.226;2023-04-06T03:16:30;101782.44;;;-1.10;91.19
76024;BME280;64719;52.124;6.226;2023-04-06T03:18:56;101776.44;;;-1.12;91.50
76024;BME280;64719;52.124;6.226;2023-04-06T03:21:23;101778.56;;;-0.96;91.32
76024;BME280;64719;52.124;6.226;2023-04-06T03:23:50;101783.88;;;-1.06;92.43
76024;BME280;64719;52.124;6.226;2023-04-06T03:26:17;101780.06;;;-1.13;92.13
76024;BME280;64719;52.124;6.226;2023-04-06T03:28:43;101774.19;;;-1.37;92.03
76024;BME280;64719;52.124;6.226;2023-04-06T03:31:10;101774.97;;;-1.25;92.04
76024;BME280;64719;52.124;6.226;2023-04-06T03:33:37;101771.31;;;-1.24;92.68
76024;BME280;64719;52.124;6.226;2023-04-06T03:36:05;101778.25;;;-1.33;92.24
76024;BME280;64719;52.124;6.226;2023-04-06T03:38:34;101770.59;;;-1.26;92.49
76024;BME280;64719;52.124;6.226;2023-04-06T03:41:02;101768.59;;;-1.34;92.46
76024;BME280;64719;52.124;6.226;2023-04-06T03:43:29;101766.06;;;-1.35;92.77
76024;BME280;64719;52.124;6.226;2023-04-06T03:45:55;101768.16;;;-1.39;92.53
76024;BME280;64719;52.124;6.226;2023-04-06T03:48:22;101767.53;;;-1.52;92.52
76024;BME280;64719;52.124;6.226;2023-04-06T03:50:48;101769.22;;;-1.51;92.77
76024;BME280;64719;52.124;6.226;2023-04-06T03:53:15;101766.28;;;-1.48;93.05
76024;BME280;64719;52.124;6.226;2023-04-06T03:55:41;101763.19;;;-1.53;93.05
76024;BME280;64719;52.124;6.226;2023-04-06T03:58:09;101761.75;;;-1.36;92.63
76024;BME280;64719;52.124;6.226;2023-04-06T04:00:36;101768.28;;;-1.40;92.23
76024;BME280;64719;52.124;6.226;2023-04-06T04:03:03;101772.91;;;-1.42;92.25
76024;BME280;64719;52.124;6.226;2023-04-06T04:05:30;101761.94;;;-1.49;92.54
76024;BME280;64719;52.124;6.226;2023-04-06T04:07:56;101770.53;;;-1.45;92.21
76024;BME280;64719;52.124;6.226;2023-04-06T04:10:23;101767.06;;;-1.36;91.13
76024;BME280;64719;52.124;6.226;2023-04-06T04:12:50;101763.56;;;-1.37;91.70
76024;BME280;64719;52.124;6.226;2023-04-06T04:15:19;101770.53;;;-1.36;92.27
76024;BME280;64719;52.124;6.226;2023-04-06T04:17:46;101765.22;;;-1.36;91.43
76024;BME280;64719;52.124;6.226;2023-04-06T04:20:14;101768.13;;;-1.48;92.20
76024;BME280;64719;52.124;6.226;2023-04-06T04:22:41;101772.84;;;-1.52;91.77
76024;BME280;64719;52.124;6.226;2023-04-06T04:25:08;101770.94;;;-1.40;92.20
76024;BME280;64719;52.124;6.226;2023-04-06T04:27:35;101768.78;;;-1.26;92.61
76024;BME280;64719;52.124;6.226;2023-04-06T04:30:02;101764.59;;;-1.28;92.48
76024;BME280;64719;52.124;6.226;2023-04-06T04:32:30;101766.00;;;-1.45;92.32
76024;BME280;64719;52.124;6.226;2023-04-06T04:34:56;101766.28;;;-1.48;92.82
76024;BME280;64719;52.124;6.226;2023-04-06T04:37:22;101763.19;;;-1.53;92.53
76024;BME280;64719;52.124;6.226;2023-04-06T04:39:49;101761.69;;;-1.46;92.45
76024;BME280;64719;52.124;6.226;2023-04-06T04:42:16;101767.19;;;-1.38;92.13
76024;BME280;64719;52.124;6.226;2023-04-06T04:44:42;101769.00;;;-1.38;92.08
76024;BME280;64719;52.124;6.226;2023-04-06T04:47:08;101764.22;;;-1.44;92.20
76024;BME280;64719;52.124;6.226;2023-04-06T04:49:36;101757.78;;;-1.12;91.40
76024;BME280;64719;52.124;6.226;2023-04-06T04:52:03;101767.72;;;-1.14;91.67
76024;BME280;64719;52.124;6.226;2023-04-06T04:54:29;101768.19;;;-1.09;90.72
76024;BME280;64719;52.124;6.226;2023-04-06T04:56:56;101756.91;;;-1.22;90.37
76024;BME280;64719;52.124;6.226;2023-04-06T04:59:22;101765.25;;;-1.06;90.61
76024;BME280;64719;52.124;6.226;2023-04-06T05:01:49;101754.34;;;-0.93;90.51
76024;BME280;64719;52.124;6.226;2023-04-06T05:04:15;101763.50;;;-0.77;88.84
76024;BME280;64719;52.124;6.226;2023-04-06T05:06:43;101762.84;;;-0.60;87.84
76024;BME280;64719;52.124;6.226;2023-04-06T05:09:10;101761.03;;;-0.21;85.21
76024;BME280;64719;52.124;6.226;2023-04-06T05:11:36;101761.06;;;-0.02;83.40
76024;BME280;64719;52.124;6.226;2023-04-06T05:14:03;101758.25;;;0.09;82.37
76024;BME280;64719;52.124;6.226;2023-04-06T05:16:34;101750.22;;;0.28;80.78
76024;BME280;64719;52.124;6.226;2023-04-06T05:19:00;101753.13;;;0.44;79.87
76024;BME280;64719;52.124;6.226;2023-04-06T05:21:27;101753.06;;;0.63;79.42
76024;BME280;64719;52.124;6.226;2023-04-06T05:23:55;101753.31;;;0.70;80.03
76024;BME280;64719;52.124;6.226;2023-04-06T05:26:21;101755.94;;;0.89;78.15
76024;BME280;64719;52.124;6.226;2023-04-06T05:28:48;101753.03;;;1.00;78.82
76024;BME280;64719;52.124;6.226;2023-04-06T05:31:14;101758.47;;;1.17;77.17
76024;BME280;64719;52.124;6.226;2023-04-06T05:33:41;101755.59;;;1.28;77.21
76024;BME280;64719;52.124;6.226;2023-04-06T05:36:08;101755.78;;;1.44;75.89
76024;BME280;64719;52.124;6.226;2023-04-06T05:38:34;101754.56;;;1.56;75.66
76024;BME280;64719;52.124;6.226;2023-04-06T05:41:02;101749.22;;;1.74;75.57
76024;BME280;64719;52.124;6.226;2023-04-06T05:43:29;101754.34;;;1.85;74.71
76024;BME280;64719;52.124;6.226;2023-04-06T05:45:55;101737.59;;;2.01;73.64
76024;BME280;64719;52.124;6.226;2023-04-06T05:48:22;101743.22;;;2.15;73.07
76024;BME280;64719;52.124;6.226;2023-04-06T05:50:49;101746.94;;;2.22;72.64
76024;BME280;64719;52.124;6.226;2023-04-06T05:53:15;101746.63;;;2.43;72.61
76024;BME280;64719;52.124;6.226;2023-04-06T05:55:42;101740.09;;;2.45;72.52
76024;BME280;64719;52.124;6.226;2023-04-06T05:58:10;101743.94;;;2.68;71.88
76024;BME280;64719;52.124;6.226;2023-04-06T06:00:36;101736.44;;;2.80;71.95
76024;BME280;64719;52.124;6.226;2023-04-06T06:03:03;101732.25;;;3.11;72.04
76024;BME280;64719;52.124;6.226;2023-04-06T06:05:31;101736.06;;;3.58;69.94
76024;BME280;64719;52.124;6.226;2023-04-06T06:07:57;101747.50;;;4.56;68.10
76024;BME280;64719;52.124;6.226;2023-04-06T06:10:27;101734.75;;;6.71;60.71
76024;BME280;64719;52.124;6.226;2023-04-06T06:12:53;101738.81;;;7.25;57.58
76024;BME280;64719;52.124;6.226;2023-04-06T06:15:21;101728.84;;;8.18;54.49
76024;BME280;64719;52.124;6.226;2023-04-06T06:17:48;101730.19;;;8.83;51.75
76024;BME280;64719;52.124;6.226;2023-04-06T06:20:15;101735.28;;;8.65;52.66
76024;BME280;64719;52.124;6.226;2023-04-06T06:22:41;101727.06;;;9.14;50.22
76024;BME280;64719;52.124;6.226;2023-04-06T06:25:08;101737.09;;;9.20;51.25
76024;BME280;64719;52.124;6.226;2023-04-06T06:27:35;101729.50;;;10.10;49.58
76024;BME280;64719;52.124;6.226;2023-04-06T06:30:02;101731.47;;;11.19;46.38
76024;BME280;64719;52.124;6.226;2023-04-06T06:32:32;101727.19;;;11.42;45.68
76024;BME280;64719;52.124;6.226;2023-04-06T06:34:58;101720.56;;;11.25;45.21
76024;BME280;64719;52.124;6.226;2023-04-06T06:37:25;101730.13;;;11.34;45.45
76024;BME280;64719;52.124;6.226;2023-04-06T06:39:52;101731.03;;;11.22;45.08
76024;BME280;64719;52.124;6.226;2023-04-06T06:42:18;101732.06;;;11.78;44.89
76024;BME280;64719;52.124;6.226;2023-04-06T06:44:44;101738.31;;;12.65;43.76
76024;BME280;64719;52.124;6.226;2023-04-06T06:47:11;101731.88;;;12.35;42.11
76024;BME280;64719;52.124;6.226;2023-04-06T06:49:39;101735.94;;;12.50;42.68
76024;BME280;64719;52.124;6.226;2023-04-06T06:52:05;101728.59;;;12.51;41.50
76024;BME280;64719;52.124;6.226;2023-04-06T06:54:32;101733.19;;;12.75;42.59
76024;BME280;64719;52.124;6.226;2023-04-06T06:56:59;101730.31;;;12.70;42.20
76024;BME280;64719;52.124;6.226;2023-04-06T06:59:27;101728.31;;;12.83;42.73
76024;BME280;64719;52.124;6.226;2023-04-06T07:01:54;101727.47;;;12.34;42.84
76024;BME280;64719;52.124;6.226;2023-04-06T07:04:20;101724.88;;;10.75;46.69
76024;BME280;64719;52.124;6.226;2023-04-06T07:06:48;101722.03;;;12.83;43.30
76024;BME280;64719;52.124;6.226;2023-04-06T07:09:15;101727.63;;;14.19;40.25
76024;BME280;64719;52.124;6.226;2023-04-06T07:11:42;101722.13;;;13.13;41.46
76024;BME280;64719;52.124;6.226;2023-04-06T07:14:08;101732.00;;;10.70;47.63
76024;BME280;64719;52.124;6.226;2023-04-06T07:16:35;101721.78;;;10.39;49.91
76024;BME280;64719;52.124;6.226;2023-04-06T07:19:01;101723.22;;;10.22;49.75
76024;BME280;64719;52.124;6.226;2023-04-06T07:21:28;101721.59;;;9.55;50.28
76024;BME280;64719;52.124;6.226;2023-04-06T07:23:56;101713.38;;;10.02;49.61
76024;BME280;64719;52.124;6.226;2023-04-06T07:26:22;101717.13;;;9.94;51.38
76024;BME280;64719;52.124;6.226;2023-04-06T07:28:49;101710.09;;;10.39;49.47
76024;BME280;64719;52.124;6.226;2023-04-06T07:31:15;101709.78;;;11.56;48.10
76024;BME280;64719;52.124;6.226;2023-04-06T07:33:42;101703.13;;;12.88;44.13
76024;BME280;64719;52.124;6.226;2023-04-06T07:36:08;101705.31;;;13.81;41.88
76024;BME280;64719;52.124;6.226;2023-04-06T07:38:34;101704.56;;;13.45;42.72
76024;BME280;64719;52.124;6.226;2023-04-06T07:41:03;101709.97;;;12.23;45.56
76024;BME280;64719;52.124;6.226;2023-04-06T07:43:30;101710.16;;;11.09;47.80
76024;BME280;64719;52.124;6.226;2023-04-06T07:45:56;101709.59;;;10.87;49.19
76024;BME280;64719;52.124;6.226;2023-04-06T07:48:24;101705.22;;;10.86;48.30
76024;BME280;64719;52.124;6.226;2023-04-06T07:50:51;101708.41;;;10.64;49.05
76024;BME280;64719;52.124;6.226;2023-04-06T07:53:17;101705.84;;;10.88;48.30
76024;BME280;64719;52.124;6.226;2023-04-06T07:55:44;101712.09;;;10.89;48.58
76024;BME280;64719;52.124;6.226;2023-04-06T07:58:12;101706.38;;;12.05;46.75
76024;BME280;64719;52.124;6.226;2023-04-06T08:00:38;101703.28;;;12.26;44.78
76024;BME280;64719;52.124;6.226;2023-04-06T08:03:05;101698.16;;;13.39;44.21
76024;BME280;64719;52.124;6.226;2023-04-06T08:05:32;101696.88;;;13.06;44.26
76024;BME280;64719;52.124;6.226;2023-04-06T08:07:58;101700.84;;;12.85;43.83
76024;BME280;64719;52.124;6.226;2023-04-06T08:10:25;101708.16;;;13.09;43.47
76024;BME280;64719;52.124;6.226;2023-04-06T08:12:52;101700.13;;;12.29;45.69
76024;BME280;64719;52.124;6.226;2023-04-06T08:15:20;101702.31;;;11.83;46.99
76024;BME280;64719;52.124;6.226;2023-04-06T08:17:46;101699.22;;;12.77;45.27
76024;BME280;64719;52.124;6.226;2023-04-06T08:20:13;101696.44;;;13.86;43.72
76024;BME280;64719;52.124;6.226;2023-04-06T08:22:39;101707.34;;;13.56;42.66
76024;BME280;64719;52.124;6.226;2023-04-06T08:25:06;101697.38;;;13.80;42.80
76024;BME280;64719;52.124;6.226;2023-04-06T08:27:33;101704.94;;;13.48;42.81
76024;BME280;64719;52.124;6.226;2023-04-06T08:29:59;101694.41;;;13.81;43.09
76024;BME280;64719;52.124;6.226;2023-04-06T08:32:27;101694.94;;;15.79;39.73
76024;BME280;64719;52.124;6.226;2023-04-06T08:34:54;101688.94;;;15.15;39.55
76024;BME280;64719;52.124;6.226;2023-04-06T08:37:21;101688.69;;;15.16;37.92
76024;BME280;64719;52.124;6.226;2023-04-06T08:39:47;101684.66;;;14.15;40.44
76024;BME280;64719;52.124;6.226;2023-04-06T08:42:19;101689.31;;;13.85;42.03
76024;BME280;64719;52.124;6.226;2023-04-06T08:44:46;101688.66;;;14.42;41.45
76024;BME280;64719;52.124;6.226;2023-04-06T08:47:13;101678.94;;;15.20;39.27
76024;BME280;64719;52.124;6.226;2023-04-06T08:49:42;101678.63;;;14.24;41.09
76024;BME280;64719;52.124;6.226;2023-04-06T08:52:10;101681.81;;;13.51;42.64
76024;BME280;64719;52.124;6.226;2023-04-06T08:54:37;101682.84;;;12.59;43.95
76024;BME280;64719;52.124;6.226;2023-04-06T08:57:04;101680.19;;;12.35;45.22
76024;BME280;64719;52.124;6.226;2023-04-06T08:59:32;101678.44;;;12.16;46.40
76024;BME280;64719;52.124;6.226;2023-04-06T09:02:00;101671.50;;;11.95;46.32
76024;BME280;64719;52.124;6.226;2023-04-06T09:04:31;101681.59;;;12.37;45.21
76024;BME280;64719;52.124;6.226;2023-04-06T09:06:59;101679.75;;;12.99;44.40
76024;BME280;64719;52.124;6.226;2023-04-06T09:09:30;101674.94;;;14.19;42.59
76024;BME280;64719;52.124;6.226;2023-04-06T09:11:57;101673.09;;;15.28;40.95
76024;BME280;64719;52.124;6.226;2023-04-06T09:14:34;101671.13;;;15.12;39.29
76024;BME280;64719;52.124;6.226;2023-04-06T09:17:02;101674.56;;;15.08;40.80
76024;BME280;64719;52.124;6.226;2023-04-06T09:19:32;101676.75;;;14.94;41.47
76024;BME280;64719;52.124;6.226;2023-04-06T09:22:04;101672.97;;;15.35;40.12
76024;BME280;64719;52.124;6.226;2023-04-06T09:24:42;101673.44;;;15.32;39.95
76024;BME280;64719;52.124;6.226;2023-04-06T09:27:09;101671.75;;;14.68;40.33
76024;BME280;64719;52.124;6.226;2023-04-06T09:29:36;101661.38;;;15.56;37.45
76024;BME280;64719;52.124;6.226;2023-04-06T09:32:04;101663.19;;;15.50;37.68
76024;BME280;64719;52.124;6.226;2023-04-06T09:34:31;101669.06;;;14.56;39.05
76024;BME280;64719;52.124;6.226;2023-04-06T09:36:57;101664.28;;;14.75;38.57
76024;BME280;64719;52.124;6.226;2023-04-06T09:39:25;101663.31;;;14.93;38.25
76024;BME280;64719;52.124;6.226;2023-04-06T09:41:53;101664.50;;;14.85;38.22
76024;BME280;64719;52.124;6.226;2023-04-06T09:44:21;101668.34;;;15.91;36.21
76024;BME280;64719;52.124;6.226;2023-04-06T09:46:51;101662.38;;;15.27;37.76
76024;BME280;64719;52.124;6.226;2023-04-06T09:49:19;101660.75;;;15.65;38.36
76024;BME280;64719;52.124;6.226;2023-04-06T09:51:51;101664.53;;;15.48;37.69
76024;BME280;64719;52.124;6.226;2023-04-06T09:54:21;101659.44;;;15.40;38.26
76024;BME280;64719;52.124;6.226;2023-04-06T09:56:51;101666.09;;;15.88;36.26
76024;BME280;64719;52.124;6.226;2023-04-06T09:59:25;101657.16;;;16.42;37.20
76024;BME280;64719;52.124;6.226;2023-04-06T10:01:58;101665.91;;;16.56;36.14
76024;BME280;64719;52.124;6.226;2023-04-06T10:04:33;101653.50;;;17.78;34.62
76024;BME280;64719;52.124;6.226;2023-04-06T10:07:04;101647.06;;;18.26;34.54
76024;BME280;64719;52.124;6.226;2023-04-06T10:09:32;101646.44;;;18.13;34.63
76024;BME280;64719;52.124;6.226;2023-04-06T10:12:05;101645.44;;;17.71;32.99
76024;BME280;64719;52.124;6.226;2023-04-06T10:14:33;101644.00;;;19.00;31.63
76024;BME280;64719;52.124;6.226;2023-04-06T10:17:02;101638.19;;;18.97;31.83
76024;BME280;64719;52.124;6.226;2023-04-06T10:19:37;101639.94;;;20.10;30.49
76024;BME280;64719;52.124;6.226;2023-04-06T10:22:08;101644.91;;;20.18;30.43
76024;BME280;64719;52.124;6.226;2023-04-06T10:24:37;101641.38;;;19.25;29.97
76024;BME280;64719;52.124;6.226;2023-04-06T10:27:06;101634.47;;;18.71;31.36
76024;BME280;64719;52.124;6.226;2023-04-06T10:29:44;101643.81;;;17.97;33.19
76024;BME280;64719;52.124;6.226;2023-04-06T10:32:11;101640.34;;;17.10;33.98
76024;BME280;64719;52.124;6.226;2023-04-06T10:34:38;101636.66;;;15.95;35.74
76024;BME280;64719;52.124;6.226;2023-04-06T10:37:15;101644.44;;;17.08;34.42
76024;BME280;64719;52.124;6.226;2023-04-06T10:39:51;101637.50;;;16.62;35.70
76024;BME280;64719;52.124;6.226;2023-04-06T10:42:23;101643.28;;;16.82;35.34
76024;BME280;64719;52.124;6.226;2023-04-06T10:44:50;101639.38;;;16.62;34.83
76024;BME280;64719;52.124;6.226;2023-04-06T10:47:17;101645.78;;;16.34;35.63
76024;BME280;64719;52.124;6.226;2023-04-06T10:49:47;101644.84;;;16.78;36.37
76024;BME280;64719;52.124;6.226;2023-04-06T10:52:13;101640.19;;;16.79;35.98
76024;BME280;64719;52.124;6.226;2023-04-06T10:54:42;101645.88;;;16.56;36.94
76024;BME280;64719;52.124;6.226;2023-04-06T10:57:09;101648.19;;;15.81;37.33
76024;BME280;64719;52.124;6.226;2023-04-06T10:59:44;101646.34;;;15.86;36.38
76024;BME280;64719;52.124;6.226;2023-04-06T11:02:19;101653.19;;;15.72;37.45
76024;BME280;64719;52.124;6.226;2023-04-06T11:04:55;101642.09;;;15.23;38.31
76024;BME280;64719;52.124;6.226;2023-04-06T11:07:23;101643.94;;;14.94;38.84
76024;BME280;64719;52.124;6.226;2023-04-06T11:09:50;101644.47;;;15.19;39.06
76024;BME280;64719;52.124;6.226;2023-04-06T11:12:21;101642.09;;;14.48;40.05
76024;BME280;64719;52.124;6.226;2023-04-06T11:14:54;101649.34;;;14.31;40.41
76024;BME280;64719;52.124;6.226;2023-04-06T11:17:25;101645.53;;;14.67;39.86
76024;BME280;64719;52.124;6.226;2023-04-06T11:19:52;101649.03;;;14.10;40.16
76024;BME280;64719;52.124;6.226;2023-04-06T11:22:18;101641.09;;;14.08;39.98
76024;BME280;64719;52.124;6.226;2023-04-06T11:24:46;101648.59;;;13.83;41.91
76024;BME280;64719;52.124;6.226;2023-04-06T11:27:14;101641.25;;;13.72;42.04
76024;BME280;64719;52.124;6.226;2023-04-06T11:29:48;101642.63;;;14.16;42.52
76024;BME280;64719;52.124;6.226;2023-04-06T11:32:23;101642.94;;;14.37;42.35
76024;BME280;64719;52.124;6.226;2023-04-06T11:34:49;101642.63;;;14.16;43.11
76024;BME280;64719;52.124;6.226;2023-04-06T11:37:18;101646.66;;;13.61;42.52
76024;BME280;64719;52.124;6.226;2023-04-06T11:39:49;101640.25;;;13.67;42.49
76024;BME280;64719;52.124;6.226;2023-04-06T11:42:24;101637.94;;;13.41;44.27
76024;BME280;64719;52.124;6.226;2023-04-06T11:44:51;101631.38;;;13.71;44.16
76024;BME280;64719;52.124;6.226;2023-04-06T11:47:18;101638.63;;;13.36;45.83
76024;BME280;64719;52.124;6.226;2023-04-06T11:49:48;101632.75;;;14.03;44.56
76024;BME280;64719;52.124;6.226;2023-04-06T11:52:19;101644.00;;;14.25;45.03
76024;BME280;64719;52.124;6.226;2023-04-06T11:54:50;101639.63;;;13.83;45.21
76024;BME280;64719;52.124;6.226;2023-04-06T11:57:19;101639.00;;;13.81;45.38
76024;BME280;64719;52.124;6.226;2023-04-06T11:59:46;101634.47;;;13.16;45.80
76024;BME280;64719;52.124;6.226;2023-04-06T12:02:12;101632.38;;;13.47;46.15
76024;BME280;64719;52.124;6.226;2023-04-06T12:04:39;101637.09;;;13.40;46.48
76024;BME280;64719;52.124;6.226;2023-04-06T12:07:07;101633.84;;;13.61;45.66
76024;BME280;64719;52.124;6.226;2023-04-06T12:09:33;101632.25;;;13.83;46.02
76024;BME280;64719;52.124;6.226;2023-04-06T12:12:04;101634.75;;;13.44;46.91
76024;BME280;64719;52.124;6.226;2023-04-06T12:14:34;101645.63;;;13.73;46.44
76024;BME280;64719;52.124;6.226;2023-04-06T12:17:00;101635.00;;;13.95;45.47
76024;BME280;64719;52.124;6.226;2023-04-06T12:19:34;101632.63;;;13.98;45.53
76024;BME280;64719;52.124;6.226;2023-04-06T12:22:00;101628.09;;;13.81;45.67
76024;BME280;64719;52.124;6.226;2023-04-06T12:24:28;101618.97;;;13.87;45.58
76024;BME280;64719;52.124;6.226;2023-04-06T12:26:55;101629.88;;;13.87;45.67
76024;BME280;64719;52.124;6.226;2023-04-06T12:29:23;101621.66;;;14.16;45.08
76024;BME280;64719;52.124;6.226;2023-04-06T12:31:50;101625.16;;;13.94;45.70
76024;BME280;64719;52.124;6.226;2023-04-06T12:34:18;101624.41;;;14.51;44.51
76024;BME280;64719;52.124;6.226;2023-04-06T12:36:44;101619.25;;;14.20;44.85
76024;BME280;64719;52.124;6.226;2023-04-06T12:39:11;101625.03;;;14.00;45.12
76024;BME280;64719;52.124;6.226;2023-04-06T12:41:39;101614.41;;;14.22;44.89
76024;BME280;64719;52.124;6.226;2023-04-06T12:44:06;101620.03;;;14.27;45.29
76024;BME280;64719;52.124;6.226;2023-04-06T12:46:33;101620.47;;;13.71;46.66
76024;BME280;64719;52.124;6.226;2023-04-06T12:49:00;101615.00;;;13.71;48.00
76024;BME280;64719;52.124;6.226;2023-04-06T12:51:27;101625.19;;;14.17;48.58
76024;BME280;64719;52.124;6.226;2023-04-06T12:53:54;101630.59;;;13.23;51.45